METAR Data
IDs: Format: Raw Decoded Include TAF

Data at: 0137 UTC 20 Jan 2022

KHEQ 200115Z AUTO 03006KT 10SM CLR M10/M13 A3044 RMK AO2
KHEQ 200055Z AUTO 04004KT 10SM CLR M10/M13 A3044 RMK AO2
KHEQ 200035Z AUTO 02004KT 10SM CLR M08/M13 A3043 RMK AO2
KHEQ 200015Z AUTO 00000KT 10SM CLR M08/M13 A3042 RMK AO2
KHEQ 192355Z AUTO 04003KT 10SM SCT023 M08/M13 A3042 RMK AO2
KHEQ 192335Z AUTO 02004KT 10SM SCT023 M07/M12 A3042 RMK AO2
KHEQ 192315Z AUTO 02006KT 10SM SCT023 M07/M13 A3042 RMK AO2
KHEQ 192255Z AUTO 04006KT 10SM SCT023 M07/M12 A3041 RMK AO2
KHEQ 192235Z AUTO 01008KT 10SM BKN021 M07/M13 A3041 RMK AO2
KHEQ 192215Z AUTO 02008KT 10SM SCT021 M06/M12 A3040 RMK AO2
KHEQ 192155Z AUTO 01007KT 10SM SCT020 M07/M12 A3039 RMK AO2
KHEQ 192135Z AUTO 02008KT 10SM SCT007 SCT010 SCT020 M06/M12 A3039 RMK AO2
KHEQ 192115Z AUTO 03009KT 10SM -SN SCT008 SCT012 BKN022 M06/M11 A3038 RMK AO2
KHEQ 192055Z AUTO 36006KT 10SM -SN SCT008 SCT022 M06/M11 A3038 RMK AO2
KHEQ 192035Z AUTO 02007KT 10SM -SN BKN008 BKN013 BKN018 M06/M11 A3038 RMK AO2
KHEQ 192015Z AUTO 35006KT 7SM -SN BKN006 BKN011 OVC018 M06/M11 A3038 RMK AO2
KHEQ 191955Z AUTO 04007KT 7SM -SN OVC007 M06/M11 A3039 RMK AO2
KHEQ 191935Z AUTO 03008KT 4SM -SN OVC007 M07/M11 A3039 RMK AO2
KHEQ 191915Z AUTO 04008KT 2 1/2SM -SN BKN009 OVC012 M07/M11 A3039 RMK AO2
KHEQ 191855Z AUTO 03006KT 5SM -SN BKN009 BKN020 M07/M11 A3039 RMK AO2
KHEQ 191835Z AUTO 03008KT 10SM -SN SCT020 BKN044 M07/M12 A3039 RMK AO2
KHEQ 191815Z AUTO 03006KT 10SM SCT020 OVC044 M07/M12 A3039 RMK AO2
KHEQ 191755Z AUTO 02010KT 10SM SCT022 OVC042 M07/M12 A3039 RMK AO2
KHEQ 191735Z AUTO 03012KT 10SM BKN020 OVC040 M07/M12 A3039 RMK AO2
KHEQ 191715Z AUTO 02013KT 10SM SCT009 BKN040 M07/M12 A3039 RMK AO2
KHEQ 191655Z AUTO 02012KT 10SM SCT008 SCT018 BKN040 M07/M12 A3038 RMK AO2
KHEQ 191635Z AUTO 03013KT 10SM SCT008 BKN013 BKN018 M07/M11 A3037 RMK AO2
KHEQ 191615Z AUTO 01010KT 7SM -SN SCT006 BKN010 BKN020 M07/M11 A3036 RMK AO2
KHEQ 191555Z AUTO 02011KT 1 3/4SM -SN BKN004 BKN010 BKN017 M07/M11 A3035 RMK AO2 VIS 1/2V5
KHEQ 191535Z AUTO 01012KT 5SM -SN SCT011 BKN019 OVC035 M07/M12 A3034 RMK AO2
KHEQ 191515Z AUTO 02011KT 10SM BKN035 M07/M12 A3032 RMK AO2
KHEQ 191455Z AUTO 02013G16KT 10SM OVC033 M07/M12 A3030 RMK AO2
KHEQ 191435Z AUTO 03010KT 10SM OVC033 M07/M12 A3030 RMK AO2
KHEQ 191415Z AUTO 03012KT 10SM OVC031 M07/M12 A3028 RMK AO2
KHEQ 191355Z AUTO 02014KT 10SM OVC031 M07/M12 A3027 RMK AO2
KHEQ 191335Z AUTO 02015KT 10SM OVC031 M06/M12 A3027 RMK AO2
KHEQ 191315Z AUTO 01016KT 10SM OVC031 M06/M12 A3025 RMK AO2
KHEQ 191255Z AUTO 03014G18KT 10SM OVC031 M06/M11 A3025 RMK AO2
KHEQ 191235Z AUTO 03012KT 10SM OVC029 M06/M11 A3023 RMK AO2
KHEQ 191215Z AUTO 02013KT 10SM SCT019 OVC029 M06/M10 A3023 RMK AO2
KHEQ 191155Z AUTO 03010KT 10SM BKN019 OVC031 M06/M10 A3021 RMK AO2
KHEQ 191135Z AUTO 02011KT 10SM SCT019 OVC029 M05/M10 A3021 RMK AO2
KHEQ 191115Z AUTO 03010KT 10SM OVC029 M05/M10 A3020 RMK AO2
KHEQ 191055Z AUTO 02013KT 10SM OVC029 M05/M10 A3020 RMK AO2
KHEQ 191035Z AUTO 03013KT 10SM OVC029 M05/M10 A3019 RMK AO2
KHEQ 191015Z AUTO 01012KT 10SM OVC027 M04/M09 A3019 RMK AO2
KHEQ 190955Z AUTO 03017KT 10SM SCT018 OVC027 M04/M09 A3018 RMK AO2
KHEQ 190935Z AUTO 02016KT 10SM SCT018 OVC025 M04/M09 A3016 RMK AO2
KHEQ 190915Z AUTO 02016KT 10SM SCT018 OVC027 M03/M07 A3016 RMK AO2
KHEQ 190855Z AUTO 02013KT 10SM BKN018 OVC027 M03/M07 A3015 RMK AO2
KHEQ 190835Z AUTO 03013KT 10SM SCT018 M03/M07 A3014 RMK AO2
KHEQ 190815Z AUTO 03011KT 10SM CLR M03/M07 A3013 RMK AO2
KHEQ 190755Z AUTO 02013KT 10SM CLR M03/M07 A3012 RMK AO2
KHEQ 190735Z AUTO 03014KT 10SM CLR M03/M07 A3012 RMK AO2
KHEQ 190715Z AUTO 03014KT 10SM CLR M02/M07 A3010 RMK AO2
KHEQ 190655Z AUTO 02015G20KT 10SM CLR M02/M06 A3010 RMK AO2
KHEQ 190635Z AUTO 02014KT 10SM CLR M01/M06 A3010 RMK AO2
KHEQ 190615Z AUTO 03013G21KT 10SM SCT017 M01/M05 A3009 RMK AO2
KHEQ 190555Z AUTO 03011KT 10SM CLR 00/M03 A3006 RMK AO2
KHEQ 190535Z AUTO 04012G17KT 10SM CLR 00/M04 A3005 RMK AO2
KHEQ 190515Z AUTO 04015G19KT 10SM CLR 01/M03 A3003 RMK AO2
KHEQ 190455Z AUTO 04017G21KT 10SM CLR 01/M03 A3003 RMK AO2
KHEQ 190435Z AUTO 04017G23KT 10SM CLR 01/M03 A3001 RMK AO2
KHEQ 190415Z AUTO 04016G21KT 10SM CLR 01/M03 A2999 RMK AO2
KHEQ 190355Z AUTO 05011G15KT 10SM CLR 01/M02 A2998 RMK AO2
KHEQ 190335Z AUTO 05011KT 10SM CLR 02/M02 A2997 RMK AO2
KHEQ 190315Z AUTO 04011KT 10SM CLR 02/M02 A2996 RMK AO2
KHEQ 190255Z AUTO 05009KT 10SM CLR 02/M03 A2994 RMK AO2
KHEQ 190235Z AUTO 05008KT 10SM CLR 03/M02 A2993 RMK AO2
KHEQ 190215Z AUTO 05008KT 10SM CLR 03/M02 A2992 RMK AO2
KHEQ 190155Z AUTO 04007KT 10SM CLR 03/M03 A2991 RMK AO2
KHEQ 190135Z AUTO 01006KT 10SM CLR 03/M03 A2990 RMK AO2
KHEQ 190115Z AUTO 36006KT 10SM CLR 03/M03 A2989 RMK AO2
KHEQ 190055Z AUTO 36006KT 10SM CLR 03/M03 A2989 RMK AO2
KHEQ 190035Z AUTO 36006KT 10SM CLR 04/M03 A2987 RMK AO2
KHEQ 190015Z AUTO 02006KT 10SM CLR 05/M03 A2986 RMK AO2
KHEQ 182355Z AUTO 03007KT 10SM CLR 05/M04 A2985 RMK AO2
KHEQ 182335Z AUTO 04007KT 10SM CLR 06/M04 A2984 RMK AO2
KHEQ 182315Z AUTO 04007KT 10SM CLR 08/M04 A2984 RMK AO2
KHEQ 182255Z AUTO 03008KT 10SM CLR 11/M03 A2983 RMK AO2
KHEQ 182235Z AUTO 03009KT 10SM CLR 12/M03 A2982 RMK AO2
KHEQ 182215Z AUTO 04008KT 10SM CLR 12/M04 A2981 RMK AO2
KHEQ 182155Z AUTO 03005KT 10SM CLR 12/M05 A2981 RMK AO2
KHEQ 182135Z AUTO 03006KT 10SM CLR 12/M05 A2980 RMK AO2
KHEQ 182115Z AUTO 36009KT 10SM CLR 13/M06 A2979 RMK AO2
KHEQ 182055Z AUTO 36013KT 10SM CLR 13/M06 A2979 RMK AO2
KHEQ 182035Z AUTO 35016G21KT 10SM CLR 15/M06 A2978 RMK AO2
KHEQ 182015Z AUTO 34010G15KT 10SM CLR 13/M05 A2978 RMK AO2
KHEQ 181955Z AUTO 32008G15KT 10SM CLR 12/M06 A2978 RMK AO2
KHEQ 181935Z AUTO 32010G14KT 10SM CLR 12/M07 A2978 RMK AO2
KHEQ 181915Z AUTO 30011G20KT 10SM CLR 12/M08 A2978 RMK AO2
KHEQ 181855Z AUTO 31014G17KT 10SM CLR 13/M08 A2979 RMK AO2
KHEQ 181835Z AUTO 29014G18KT 10SM CLR 13/M09 A2979 RMK AO2
KHEQ 181815Z AUTO 30012G22KT 10SM CLR 13/M10 A2979 RMK AO2
KHEQ 181755Z AUTO 29013G23KT 10SM CLR 13/M10 A2980 RMK AO2
KHEQ 181735Z AUTO 30011G19KT 10SM CLR 15/M09 A2980 RMK AO2
KHEQ 181715Z AUTO 30014G21KT 10SM CLR 13/M10 A2979 RMK AO2
KHEQ 181655Z AUTO 30008KT 10SM CLR 12/M05 A2980 RMK AO2
KHEQ 181635Z AUTO 30005KT 10SM CLR 10/M02 A2980 RMK AO2
KHEQ 181615Z AUTO 26011KT 10SM CLR 07/M03 A2980 RMK AO2
KHEQ 181555Z AUTO 26010KT 10SM CLR 05/M02 A2978 RMK AO2
KHEQ 181535Z AUTO 27009KT 10SM CLR 03/M02 A2978 RMK AO2
KHEQ 181515Z AUTO 27009KT 10SM CLR 02/M03 A2978 RMK AO2
KHEQ 181455Z AUTO 26009KT 10SM CLR 01/M03 A2978 RMK AO2
KHEQ 181435Z AUTO 27010KT 10SM CLR 01/M04 A2977 RMK AO2
KHEQ 181415Z AUTO 28007KT 10SM CLR 01/M03 A2977 RMK AO2
KHEQ 181355Z AUTO 27008KT 10SM CLR 01/M03 A2978 RMK AO2